Time;durP1;ratioP1;P1;durP2;ratioP2;P2;SDS_P1;SDS_P2;PMS_P1;PMS_P2;Temp;Humidity;BMP_temperature;BMP_pressure;BME280_temperature;BME280_humidity;BME280_pressure;Samples;Min_cycle;Max_cycle;Signal;HPM_P1;HPM_P2
2023/11/17 00:00:05;;;;;;;;;;;;;;;;;;5053743;28;19924;-62
2023/11/17 00:02:32;;;;;;;;;;;;;;;;;;5038968;28;19921;-61
2023/11/17 00:04:58;;;;;;;;;;;;;;;;;;5039453;28;20057;-62
2023/11/17 00:07:25;;;;;;;;;;;;;;;;;;5053282;28;20353;-62
2023/11/17 00:09:51;;;;;;;;;;;;;;;;;;5052728;28;19921;-62
2023/11/17 00:12:18;;;;;;;;;;;;;;;;;;5052957;28;19928;-62
2023/11/17 00:14:45;;;;;;;;;;;;;;;;;;5053406;28;19921;-62
2023/11/17 00:17:11;;;;;;;;;;;;;;;;;;5053214;28;19920;-61
2023/11/17 00:19:38;;;;;;;;;;;;;;;;;;5052867;28;20394;-61
2023/11/17 00:22:04;;;;;;;;;;;;;;;;;;5052477;28;19928;-62
2023/11/17 00:24:31;;;;;;;;;;;;;;;;;;5053096;28;19991;-63
2023/11/17 00:26:59;;;;;;;;;;;;;;;;;;5052146;28;19928;-61
2023/11/17 00:29:25;;;;;;;;;;;;;;;;;;5053119;28;19921;-62
2023/11/17 00:31:52;;;;;;;;;;;;;;;;;;5052841;28;20273;-62
2023/11/17 00:34:19;;;;;;;;;;;;;;;;;;5052874;28;19947;-62
2023/11/17 00:36:45;;;;;;;;;;;;;;;;;;5053059;28;19936;-62
2023/11/17 00:39:14;;;;;;;;;;;;;;;;;;5052787;28;19921;-62
2023/11/17 00:41:40;;;;;;;;;;;;;;;;;;5053934;28;19920;-62
2023/11/17 00:44:07;;;;;;;;;;;;;;;;;;5056880;28;19921;-62
2023/11/17 00:46:33;;;;;;;;;;;;;;;;;;5056982;28;19920;-62
2023/11/17 00:49:03;;;;;;;;;;;;;;;;;;5036851;28;19928;-63
2023/11/17 00:51:29;;;;;;;;;;;;;;;;;;5036637;28;19925;-62
2023/11/17 00:54:00;;;;;;;;;;;;;;;;;;5036825;28;20420;-62
2023/11/17 00:56:26;;;;;;;;;;;;;;;;;;5035968;28;19921;-62
2023/11/17 00:58:53;;;;;;;;;;;;;;;;;;5036659;28;19928;-62
2023/11/17 01:01:20;;;;;;;;;;;;;;;;;;5036599;28;20393;-62
2023/11/17 01:03:47;;;;;;;;;;;;;;;;;;5036804;28;20370;-62
2023/11/17 01:06:14;;;;;;;;;;;;;;;;;;5036767;28;20424;-62
2023/11/17 01:08:40;;;;;;;;;;;;;;;;;;5036720;28;20271;-62
2023/11/17 01:11:09;;;;;;;;;;;;;;;;;;5035479;28;19936;-62
2023/11/17 01:13:35;;;;;;;;;;;;;;;;;;5036169;28;19921;-62
2023/11/17 01:16:02;;;;;;;;;;;;;;;;;;5036134;28;19921;-62
2023/11/17 01:18:29;;;;;;;;;;;;;;;;;;5036320;28;19932;-63
2023/11/17 01:20:55;;;;;;;;;;;;;;;;;;5035668;28;19928;-62
2023/11/17 01:23:25;;;;;;;;;;;;;;;;;;5036296;28;20290;-62
2023/11/17 01:25:51;;;;;;;;;;;;;;;;;;5035184;28;19921;-62
2023/11/17 01:28:18;;;;;;;;;;;;;;;;;;5035870;28;19944;-62
2023/11/17 01:30:44;;;;;;;;;;;;;;;;;;5036099;28;19921;-62
2023/11/17 01:33:11;;;;;;;;;;;;;;;;;;5036125;28;19928;-62
2023/11/17 01:35:38;;;;;;;;;;;;;;;;;;5034659;28;19921;-62
2023/11/17 01:38:05;;;;;;;;;;;;;;;;;;5035596;28;19921;-62
2023/11/17 01:40:31;;;;;;;;;;;;;;;;;;5034887;28;19921;-62
2023/11/17 01:42:58;;;;;;;;;;;;;;;;;;5036172;28;19934;-63
2023/11/17 01:45:24;;;;;;;;;;;;;;;;;;5035826;28;20397;-62
2023/11/17 01:47:51;;;;;;;;;;;;;;;;;;5045644;28;19942;-63
2023/11/17 01:50:17;;;;;;;;;;;;;;;;;;5055384;28;19936;-62
2023/11/17 01:52:44;;;;;;;;;;;;;;;;;;5055551;28;19920;-62
2023/11/17 01:55:11;;;;;;;;;;;;;;;;;;5055441;28;19928;-63
2023/11/17 01:57:38;;;;;;;;;;;;;;;;;;5054919;28;19944;-63
2023/11/17 02:00:06;;;;;;;;;;;;;;;;;;5055165;28;19920;-62
2023/11/17 02:02:32;;;;;;;;;;;;;;;;;;5050376;28;20376;-62
2023/11/17 02:04:59;;;;;;;;;;;;;;;;;;5055531;28;19920;-62
2023/11/17 02:07:26;;;;;;;;;;;;;;;;;;5055549;28;19920;-63
2023/11/17 02:09:53;;;;;;;;;;;;;;;;;;5055144;28;19920;-63
2023/11/17 02:12:21;;;;;;;;;;;;;;;;;;5053068;28;19916;-61
2023/11/17 02:14:48;;;;;;;;;;;;;;;;;;5055335;28;20357;-61
2023/11/17 02:17:15;;;;;;;;;;;;;;;;;;5055041;28;19928;-61
2023/11/17 02:19:43;;;;;;;;;;;;;;;;;;5054849;28;19921;-62
2023/11/17 02:22:09;;;;;;;;;;;;;;;;;;5054858;28;19921;-62
2023/11/17 02:24:41;;;;;;;;;;;;;;;;;;5054837;28;19935;-62
2023/11/17 02:27:08;;;;;;;;;;;;;;;;;;5054227;28;19995;-63
2023/11/17 02:29:37;;;;;;;;;;;;;;;;;;5055124;28;19939;-62
2023/11/17 02:32:04;;;;;;;;;;;;;;;;;;5054243;28;19920;-62
2023/11/17 02:34:30;;;;;;;;;;;;;;;;;;5054951;28;19924;-62
2023/11/17 02:36:58;;;;;;;;;;;;;;;;;;5054568;28;19928;-62
2023/11/17 02:39:26;;;;;;;;;;;;;;;;;;5054541;28;19921;-62
2023/11/17 02:41:57;;;;;;;;;;;;;;;;;;5053912;28;19925;-61
2023/11/17 02:44:28;;;;;;;;;;;;;;;;;;5054821;28;19921;-62
2023/11/17 02:46:58;;;;;;;;;;;;;;;;;;5054191;28;19928;-63
2023/11/17 02:49:29;;;;;;;;;;;;;;;;;;5054333;28;19920;-62
2023/11/17 02:51:55;;;;;;;;;;;;;;;;;;5054347;28;19921;-62
2023/11/17 02:54:22;;;;;;;;;;;;;;;;;;5054472;28;19991;-62
2023/11/17 02:56:48;;;;;;;;;;;;;;;;;;5053801;28;19921;-62
2023/11/17 02:59:17;;;;;;;;;;;;;;;;;;5054263;28;19927;-62
2023/11/17 03:01:44;;;;;;;;;;;;;;;;;;5054343;28;20281;-62
2023/11/17 03:04:13;;;;;;;;;;;;;;;;;;5054000;28;19920;-61
2023/11/17 03:06:40;;;;;;;;;;;;;;;;;;5054214;28;19928;-61
2023/11/17 03:09:06;;;;;;;;;;;;;;;;;;5053904;28;19920;-61
2023/11/17 03:11:33;;;;;;;;;;;;;;;;;;5053623;28;19920;-60
2023/11/17 03:14:05;;;;;;;;;;;;;;;;;;5053942;28;19921;-60
2023/11/17 03:16:32;;;;;;;;;;;;;;;;;;5053667;28;20302;-60
2023/11/17 03:18:58;;;;;;;;;;;;;;;;;;5054081;28;19928;-60
2023/11/17 03:21:25;;;;;;;;;;;;;;;;;;5053895;28;19928;-61
2023/11/17 03:23:50;;;;;;;;;;;;;;;;;;5053607;28;19931;-61
2023/11/17 03:26:17;;;;;;;;;;;;;;;;;;5053302;28;19924;-61
2023/11/17 03:28:43;;;;;;;;;;;;;;;;;;5053978;28;19928;-61
2023/11/17 03:31:13;;;;;;;;;;;;;;;;;;5053932;28;20273;-60
2023/11/17 03:33:43;;;;;;;;;;;;;;;;;;5053910;28;19921;-60
2023/11/17 03:36:10;;;;;;;;;;;;;;;;;;5053537;28;19921;-60
2023/11/17 03:38:36;;;;;;;;;;;;;;;;;;5053688;28;20297;-61
2023/11/17 03:41:02;;;;;;;;;;;;;;;;;;5053472;28;19920;-61
2023/11/17 03:43:29;;;;;;;;;;;;;;;;;;5052766;28;19928;-60
2023/11/17 03:45:56;;;;;;;;;;;;;;;;;;5053612;28;19920;-61
2023/11/17 03:48:23;;;;;;;;;;;;;;;;;;5052935;28;19920;-61
2023/11/17 03:50:51;;;;;;;;;;;;;;;;;;5053517;28;19928;-61
2023/11/17 03:53:17;;;;;;;;;;;;;;;;;;5053230;28;19928;-60
2023/11/17 03:55:44;;;;;;;;;;;;;;;;;;5053446;28;19921;-60
2023/11/17 03:58:10;;;;;;;;;;;;;;;;;;5052776;28;19925;-61
2023/11/17 04:00:37;;;;;;;;;;;;;;;;;;5053525;28;20258;-59
2023/11/17 04:03:04;;;;;;;;;;;;;;;;;;5053495;28;19921;-60
2023/11/17 04:05:31;;;;;;;;;;;;;;;;;;5053293;28;19920;-60
2023/11/17 04:07:57;;;;;;;;;;;;;;;;;;5053292;28;19927;-60
2023/11/17 04:10:24;;;;;;;;;;;;;;;;;;5053326;28;19921;-60
2023/11/17 04:12:51;;;;;;;;;;;;;;;;;;5052568;28;19920;-60
2023/11/17 04:15:17;;;;;;;;;;;;;;;;;;5052757;28;20285;-59
2023/11/17 04:17:44;;;;;;;;;;;;;;;;;;5052452;28;19921;-60
2023/11/17 04:20:14;;;;;;;;;;;;;;;;;;5052652;28;19927;-60
2023/11/17 04:22:40;;;;;;;;;;;;;;;;;;5053162;28;19927;-61
2023/11/17 04:25:07;;;;;;;;;;;;;;;;;;5052655;28;19943;-60
2023/11/17 04:27:35;;;;;;;;;;;;;;;;;;5052101;28;19920;-60
2023/11/17 04:30:01;;;;;;;;;;;;;;;;;;5051528;28;19921;-60
2023/11/17 04:32:28;;;;;;;;;;;;;;;;;;5052888;28;20378;-60
2023/11/17 04:34:54;;;;;;;;;;;;;;;;;;5052901;28;19928;-60
2023/11/17 04:37:21;;;;;;;;;;;;;;;;;;5052519;28;19920;-60
2023/11/17 04:39:47;;;;;;;;;;;;;;;;;;5052960;28;19921;-60
2023/11/17 04:42:14;;;;;;;;;;;;;;;;;;5052249;28;19921;-60
2023/11/17 04:44:40;;;;;;;;;;;;;;;;;;5053141;28;20353;-60
2023/11/17 04:47:07;;;;;;;;;;;;;;;;;;5052553;28;19921;-61
2023/11/17 04:49:33;;;;;;;;;;;;;;;;;;5053307;28;19925;-60
2023/11/17 04:52:00;;;;;;;;;;;;;;;;;;5052693;28;20243;-60
2023/11/17 04:54:26;;;;;;;;;;;;;;;;;;5052861;28;20000;-60
2023/11/17 04:56:55;;;;;;;;;;;;;;;;;;5052165;28;19929;-61
2023/11/17 04:59:21;;;;;;;;;;;;;;;;;;5052453;28;19928;-61
2023/11/17 05:01:48;;;;;;;;;;;;;;;;;;5052617;28;19921;-61
2023/11/17 05:04:14;;;;;;;;;;;;;;;;;;5052903;28;19928;-61
2023/11/17 05:06:42;;;;;;;;;;;;;;;;;;5052395;28;19927;-61
2023/11/17 05:09:10;;;;;;;;;;;;;;;;;;5052811;28;19921;-60
2023/11/17 05:11:37;;;;;;;;;;;;;;;;;;5051804;28;20000;-61
2023/11/17 05:14:04;;;;;;;;;;;;;;;;;;5051811;28;19948;-60
2023/11/17 05:16:32;;;;;;;;;;;;;;;;;;5052153;28;20355;-60
2023/11/17 05:18:59;;;;;;;;;;;;;;;;;;5051971;28;20374;-60
2023/11/17 05:21:25;;;;;;;;;;;;;;;;;;5052403;28;20241;-60
2023/11/17 05:23:52;;;;;;;;;;;;;;;;;;5052272;28;19921;-60
2023/11/17 05:26:19;;;;;;;;;;;;;;;;;;5052116;28;19928;-60
2023/11/17 05:28:46;;;;;;;;;;;;;;;;;;5054497;28;19927;-61
2023/11/17 05:31:13;;;;;;;;;;;;;;;;;;5055723;28;19921;-60
2023/11/17 05:33:39;;;;;;;;;;;;;;;;;;5055701;28;19921;-61
2023/11/17 05:36:06;;;;;;;;;;;;;;;;;;5055711;28;19936;-61
2023/11/17 05:38:32;;;;;;;;;;;;;;;;;;5054762;28;19920;-60
2023/11/17 05:40:59;;;;;;;;;;;;;;;;;;5055463;28;20372;-61
2023/11/17 05:43:25;;;;;;;;;;;;;;;;;;5055400;28;19921;-61
2023/11/17 05:45:53;;;;;;;;;;;;;;;;;;5055784;28;19928;-61
2023/11/17 05:48:20;;;;;;;;;;;;;;;;;;5054905;28;19921;-61
2023/11/17 05:50:46;;;;;;;;;;;;;;;;;;5055554;28;19920;-62
2023/11/17 05:53:13;;;;;;;;;;;;;;;;;;5055498;28;19921;-61
2023/11/17 05:55:40;;;;;;;;;;;;;;;;;;5055560;28;19928;-62
2023/11/17 05:58:07;;;;;;;;;;;;;;;;;;5054950;28;19928;-60
2023/11/17 06:00:34;;;;;;;;;;;;;;;;;;5055634;28;19925;-61
2023/11/17 06:03:00;;;;;;;;;;;;;;;;;;5055758;28;19999;-61
2023/11/17 06:05:27;;;;;;;;;;;;;;;;;;5055401;28;19921;-61
2023/11/17 06:07:53;;;;;;;;;;;;;;;;;;5055239;28;19925;-61
2023/11/17 06:10:20;;;;;;;;;;;;;;;;;;5055267;28;19920;-60
2023/11/17 06:12:48;;;;;;;;;;;;;;;;;;5054622;28;19936;-62
2023/11/17 06:15:20;;;;;;;;;;;;;;;;;;5053763;28;20373;-61
2023/11/17 06:17:46;;;;;;;;;;;;;;;;;;5054456;28;20293;-61
2023/11/17 06:20:14;;;;;;;;;;;;;;;;;;5054279;28;19929;-61
2023/11/17 06:22:40;;;;;;;;;;;;;;;;;;5054522;28;20285;-61
2023/11/17 06:25:08;;;;;;;;;;;;;;;;;;5054709;28;19921;-61
2023/11/17 06:27:35;;;;;;;;;;;;;;;;;;5051806;28;19921;-61
2023/11/17 06:30:02;;;;;;;;;;;;;;;;;;5053599;28;19927;-60
2023/11/17 06:32:29;;;;;;;;;;;;;;;;;;5050682;28;19921;-61
2023/11/17 06:34:55;;;;;;;;;;;;;;;;;;5042818;28;19928;-61
2023/11/17 06:37:22;;;;;;;;;;;;;;;;;;5053293;28;20293;-61
2023/11/17 06:39:48;;;;;;;;;;;;;;;;;;5049025;28;19928;-61
2023/11/17 06:42:15;;;;;;;;;;;;;;;;;;5047450;28;19921;-61
2023/11/17 06:44:41;;;;;;;;;;;;;;;;;;5053669;28;19920;-61
2023/11/17 06:47:07;;;;;;;;;;;;;;;;;;5051549;28;19928;-61
2023/11/17 06:49:34;;;;;;;;;;;;;;;;;;5052742;28;19925;-61
2023/11/17 06:52:01;;;;;;;;;;;;;;;;;;5050366;28;19921;-61
2023/11/17 06:54:27;;;;;;;;;;;;;;;;;;5041942;28;19921;-61
2023/11/17 06:56:54;;;;;;;;;;;;;;;;;;5053236;28;19924;-61
2023/11/17 06:59:21;;;;;;;;;;;;;;;;;;5053774;28;19921;-61
2023/11/17 07:01:49;;;;;;;;;;;;;;;;;;5053307;28;19928;-60
2023/11/17 07:04:15;;;;;;;;;;;;;;;;;;5052896;28;19928;-60
2023/11/17 07:06:42;;;;;;;;;;;;;;;;;;5053303;28;19927;-61
2023/11/17 07:09:16;;;;;;;;;;;;;;;;;;5054108;28;19928;-61
2023/11/17 07:11:42;;;;;;;;;;;;;;;;;;5054154;28;19920;-61
2023/11/17 07:14:09;;;;;;;;;;;;;;;;;;5053201;28;19921;-61
2023/11/17 07:16:35;;;;;;;;;;;;;;;;;;5052575;28;19939;-61
2023/11/17 07:19:02;;;;;;;;;;;;;;;;;;5040596;28;20392;-61
2023/11/17 07:21:28;;;;;;;;;;;;;;;;;;5053595;28;19939;-61
2023/11/17 07:23:58;;;;;;;;;;;;;;;;;;5054067;28;19921;-61
2023/11/17 07:26:25;;;;;;;;;;;;;;;;;;5053906;28;19944;-61
2023/11/17 07:28:51;;;;;;;;;;;;;;;;;;5053501;28;19928;-61
2023/11/17 07:31:18;;;;;;;;;;;;;;;;;;5052612;28;19944;-61
2023/11/17 07:33:44;;;;;;;;;;;;;;;;;;5053307;28;19924;-61
2023/11/17 07:36:11;;;;;;;;;;;;;;;;;;5052861;28;19943;-61
2023/11/17 07:38:37;;;;;;;;;;;;;;;;;;5052942;28;19927;-40
2023/11/17 07:41:03;;;;;;;;;;;;;;;;;;5050723;28;19920;-40
2023/11/17 07:43:30;;;;;;;;;;;;;;;;;;5051539;28;19963;-66
2023/11/17 07:45:56;;;;;;;;;;;;;;;;;;5051440;28;19954;-66
2023/11/17 07:48:23;;;;;;;;;;;;;;;;;;5053082;28;19928;-66
2023/11/17 07:50:52;;;;;;;;;;;;;;;;;;5050987;28;19920;-66
2023/11/17 07:53:18;;;;;;;;;;;;;;;;;;5052593;28;20259;-66
2023/11/17 07:55:45;;;;;;;;;;;;;;;;;;5051786;28;19921;-66
2023/11/17 07:58:12;;;;;;;;;;;;;;;;;;5052291;28;19920;-66
2023/11/17 08:00:38;;;;;;;;;;;;;;;;;;5051476;28;19920;-66
2023/11/17 08:03:05;;;;;;;;;;;;;;;;;;5052423;28;20346;-66
2023/11/17 08:05:31;;;;;;;;;;;;;;;;;;5052110;28;19925;-66
2023/11/17 08:08:00;;;;;;;;;;;;;;;;;;5051857;28;20312;-66
2023/11/17 08:10:29;;;;;;;;;;;;;;;;;;5052343;28;19921;-66
2023/11/17 08:12:55;;;;;;;;;;;;;;;;;;5052530;28;19996;-66
2023/11/17 08:15:22;;;;;;;;;;;;;;;;;;5052054;28;19921;-66
2023/11/17 08:17:48;;;;;;;;;;;;;;;;;;5051747;28;19921;-66
2023/11/17 08:20:15;;;;;;;;;;;;;;;;;;5051887;28;19920;-66
2023/11/17 08:22:42;;;;;;;;;;;;;;;;;;5052011;28;20000;-66
2023/11/17 08:25:08;;;;;;;;;;;;;;;;;;5052292;28;19928;-66
2023/11/17 08:27:35;;;;;;;;;;;;;;;;;;5051432;28;20247;-66
2023/11/17 08:30:07;;;;;;;;;;;;;;;;;;5051747;28;19927;-66
2023/11/17 08:32:33;;;;;;;;;;;;;;;;;;5051968;28;19920;-66
2023/11/17 08:35:00;;;;;;;;;;;;;;;;;;5051772;28;19920;-66
2023/11/17 08:37:28;;;;;;;;;;;;;;;;;;5051309;28;19921;-66
2023/11/17 08:39:55;;;;;;;;;;;;;;;;;;5052235;28;19932;-66
2023/11/17 08:42:21;;;;;;;;;;;;;;;;;;5051321;28;19927;-66
2023/11/17 08:44:49;;;;;;;;;;;;;;;;;;5051564;28;20286;-66
2023/11/17 08:47:15;;;;;;;;;;;;;;;;;;5050954;28;19936;-67
2023/11/17 08:49:42;;;;;;;;;;;;;;;;;;5051652;28;19931;-67
2023/11/17 08:52:08;;;;;;;;;;;;;;;;;;5051906;28;19921;-67
2023/11/17 08:54:35;;;;;;;;;;;;;;;;;;5051484;28;20385;-67
2023/11/17 08:57:02;;;;;;;;;;;;;;;;;;5051626;28;20288;-66
2023/11/17 08:59:29;;;;;;;;;;;;;;;;;;5051139;28;19921;-66
2023/11/17 09:01:55;;;;;;;;;;;;;;;;;;5051693;28;19921;-66
2023/11/17 09:04:22;;;;;;;;;;;;;;;;;;5048333;28;19928;-66
2023/11/17 09:06:49;;;;;;;;;;;;;;;;;;5055293;28;20282;-66
2023/11/17 09:09:17;;;;;;;;;;;;;;;;;;5052666;28;20288;-66
2023/11/17 09:11:47;;;;;;;;;;;;;;;;;;5054067;28;19925;-66
2023/11/17 09:14:13;;;;;;;;;;;;;;;;;;5046257;28;20274;-66
2023/11/17 09:16:40;;;;;;;;;;;;;;;;;;5054103;28;19921;-66
2023/11/17 09:19:06;;;;;;;;;;;;;;;;;;5049823;28;19921;-66
2023/11/17 09:21:33;;;;;;;;;;;;;;;;;;5038149;28;19925;-66
2023/11/17 09:24:00;;;;;;;;;;;;;;;;;;5060901;28;19940;-66
2023/11/17 09:26:27;;;;;;;;;;;;;;;;;;5055230;28;19920;-66
2023/11/17 09:28:54;;;;;;;;;;;;;;;;;;5043316;28;19920;-66
2023/11/17 09:31:20;;;;;;;;;;;;;;;;;;5053465;28;20384;-65
2023/11/17 09:33:48;;;;;;;;;;;;;;;;;;5052865;28;19932;-65
2023/11/17 09:36:15;;;;;;;;;;;;;;;;;;5055299;28;19921;-65
2023/11/17 09:38:41;;;;;;;;;;;;;;;;;;5054390;28;19928;-66
2023/11/17 09:41:09;;;;;;;;;;;;;;;;;;5044728;28;20393;-65
2023/11/17 09:43:36;;;;;;;;;;;;;;;;;;5053111;28;20378;-66
2023/11/17 09:46:02;;;;;;;;;;;;;;;;;;5048069;28;19959;-65
2023/11/17 09:48:28;;;;;;;;;;;;;;;;;;5044128;28;19928;-65
2023/11/17 09:50:56;;;;;;;;;;;;;;;;;;5053800;28;19932;-65
2023/11/17 09:53:23;;;;;;;;;;;;;;;;;;5068989;28;19928;-66
2023/11/17 09:55:49;;;;;;;;;;;;;;;;;;5055807;28;19921;-66
2023/11/17 09:58:15;;;;;;;;;;;;;;;;;;5054355;28;19924;-65
2023/11/17 10:00:43;;;;;;;;;;;;;;;;;;5046790;28;19953;-65
2023/11/17 10:03:13;;;;;;;;;;;;;;;;;;5034808;28;19921;-65
2023/11/17 10:05:39;;;;;;;;;;;;;;;;;;5047965;28;19921;-65
2023/11/17 10:08:06;;;;;;;;;;;;;;;;;;5042262;28;20294;-65
2023/11/17 10:10:32;;;;;;;;;;;;;;;;;;5054550;28;19927;-65
2023/11/17 10:13:00;;;;;;;;;;;;;;;;;;5053937;28;19920;-65
2023/11/17 10:15:26;;;;;;;;;;;;;;;;;;5052146;28;20342;-65
2023/11/17 10:17:53;;;;;;;;;;;;;;;;;;5054042;28;19928;-65
2023/11/17 10:20:19;;;;;;;;;;;;;;;;;;5053919;28;19944;-65
2023/11/17 10:22:46;;;;;;;;;;;;;;;;;;5065122;28;19940;-65
2023/11/17 10:25:13;;;;;;;;;;;;;;;;;;5050511;28;19939;-65
2023/11/17 10:27:42;;;;;;;;;;;;;;;;;;5052704;28;20377;-65
2023/11/17 10:30:08;;;;;;;;;;;;;;;;;;5052872;28;19921;-65
2023/11/17 10:32:35;;;;;;;;;;;;;;;;;;5053913;28;19921;-64
2023/11/17 10:35:01;;;;;;;;;;;;;;;;;;5054119;28;20369;-64
2023/11/17 10:37:28;;;;;;;;;;;;;;;;;;5053516;28;20393;-65
2023/11/17 10:39:56;;;;;;;;;;;;;;;;;;5054117;28;19928;-65
2023/11/17 10:42:24;;;;;;;;;;;;;;;;;;5049821;28;19921;-65
2023/11/17 10:44:50;;;;;;;;;;;;;;;;;;5052079;28;20262;-65
2023/11/17 10:47:17;;;;;;;;;;;;;;;;;;5051867;28;20289;-65
2023/11/17 10:49:43;;;;;;;;;;;;;;;;;;5053630;28;19921;-66
2023/11/17 10:52:10;;;;;;;;;;;;;;;;;;5049932;28;19921;-66
2023/11/17 10:54:37;;;;;;;;;;;;;;;;;;5053176;28;20385;-64
2023/11/17 10:57:03;;;;;;;;;;;;;;;;;;5051980;28;19928;-64
2023/11/17 10:59:29;;;;;;;;;;;;;;;;;;5053073;28;19920;-64
2023/11/17 11:01:56;;;;;;;;;;;;;;;;;;5050044;28;19931;-66
2023/11/17 11:04:25;;;;;;;;;;;;;;;;;;5043325;28;19928;-65
2023/11/17 11:06:51;;;;;;;;;;;;;;;;;;5050380;28;19921;-66
2023/11/17 11:09:18;;;;;;;;;;;;;;;;;;5053935;28;19943;-67
2023/11/17 11:11:45;;;;;;;;;;;;;;;;;;5051334;28;19931;-66
2023/11/17 11:14:11;;;;;;;;;;;;;;;;;;5050143;28;20293;-67
2023/11/17 11:16:38;;;;;;;;;;;;;;;;;;5051359;28;20274;-66
2023/11/17 11:19:04;;;;;;;;;;;;;;;;;;5052176;28;19920;-66
2023/11/17 11:21:33;;;;;;;;;;;;;;;;;;5051260;28;19948;-67
2023/11/17 11:24:08;;;;;;;;;;;;;;;;;;5051334;28;20293;-65
2023/11/17 11:26:36;;;;;;;;;;;;;;;;;;5051547;28;19973;-67
2023/11/17 11:29:04;;;;;;;;;;;;;;;;;;5052595;28;19928;-67
2023/11/17 11:31:35;;;;;;;;;;;;;;;;;;5049303;28;19921;-67
2023/11/17 11:34:06;;;;;;;;;;;;;;;;;;5054212;28;19921;-66
2023/11/17 11:36:32;;;;;;;;;;;;;;;;;;5053072;28;20313;-68
2023/11/17 11:38:59;;;;;;;;;;;;;;;;;;5051820;28;19927;-68
2023/11/17 11:41:26;;;;;;;;;;;;;;;;;;5051223;28;19925;-68
2023/11/17 11:43:53;;;;;;;;;;;;;;;;;;5052272;28;20030;-68
2023/11/17 11:46:19;;;;;;;;;;;;;;;;;;5051468;28;19935;-67
2023/11/17 11:48:56;;;;;;;;;;;;;;;;;;5046877;28;19932;-66
2023/11/17 11:51:23;;;;;;;;;;;;;;;;;;5052332;28;19935;-67
2023/11/17 11:53:49;;;;;;;;;;;;;;;;;;5052238;28;20483;-66
2023/11/17 11:56:17;;;;;;;;;;;;;;;;;;5052983;28;19932;-67
2023/11/17 11:58:44;;;;;;;;;;;;;;;;;;5053046;28;20280;-67
2023/11/17 12:01:10;;;;;;;;;;;;;;;;;;5052392;28;19928;-66
2023/11/17 12:03:39;;;;;;;;;;;;;;;;;;5053537;28;19928;-67
2023/11/17 12:06:06;;;;;;;;;;;;;;;;;;5053027;28;19932;-66
2023/11/17 12:08:32;;;;;;;;;;;;;;;;;;5053393;28;20396;-66
2023/11/17 12:11:01;;;;;;;;;;;;;;;;;;5053034;28;19921;-67
2023/11/17 12:13:27;;;;;;;;;;;;;;;;;;5053700;28;20262;-66
2023/11/17 12:15:53;;;;;;;;;;;;;;;;;;5053089;28;19923;-66
2023/11/17 12:18:20;;;;;;;;;;;;;;;;;;5053204;28;20325;-67
2023/11/17 12:20:46;;;;;;;;;;;;;;;;;;5053258;28;19932;-67
2023/11/17 12:23:14;;;;;;;;;;;;;;;;;;5053440;28;19921;-67
2023/11/17 12:25:41;;;;;;;;;;;;;;;;;;5053500;28;19927;-67
2023/11/17 12:28:11;;;;;;;;;;;;;;;;;;5053312;28;19927;-67
2023/11/17 12:30:37;;;;;;;;;;;;;;;;;;5053168;28;20285;-67
2023/11/17 12:33:04;;;;;;;;;;;;;;;;;;5052689;28;19920;-67
2023/11/17 12:35:31;;;;;;;;;;;;;;;;;;5052908;28;19920;-67
2023/11/17 12:37:57;;;;;;;;;;;;;;;;;;5054639;28;19927;-67
2023/11/17 12:40:24;;;;;;;;;;;;;;;;;;5056786;28;19921;-67
2023/11/17 12:42:50;;;;;;;;;;;;;;;;;;5056965;28;20385;-67
2023/11/17 12:45:17;;;;;;;;;;;;;;;;;;5056907;28;19928;-67
2023/11/17 12:47:44;;;;;;;;;;;;;;;;;;5056412;28;19921;-67
2023/11/17 12:50:11;;;;;;;;;;;;;;;;;;5056968;28;20366;-67
2023/11/17 12:52:38;;;;;;;;;;;;;;;;;;5056970;28;19944;-67
2023/11/17 12:55:06;;;;;;;;;;;;;;;;;;5056798;28;19920;-67
2023/11/17 12:57:33;;;;;;;;;;;;;;;;;;5056642;28;20289;-67
2023/11/17 12:59:59;;;;;;;;;;;;;;;;;;5056265;28;19928;-67
2023/11/17 13:02:26;;;;;;;;;;;;;;;;;;5056347;28;19920;-67
2023/11/17 13:04:52;;;;;;;;;;;;;;;;;;5056068;28;19928;-67
2023/11/17 13:07:19;;;;;;;;;;;;;;;;;;5056522;28;19921;-67
2023/11/17 13:09:46;;;;;;;;;;;;;;;;;;5056220;28;19927;-67
2023/11/17 13:12:13;;;;;;;;;;;;;;;;;;5056205;28;19920;-67
2023/11/17 13:14:39;;;;;;;;;;;;;;;;;;5057230;28;19944;-67
2023/11/17 13:17:07;;;;;;;;;;;;;;;;;;5055887;28;19931;-67
2023/11/17 13:19:35;;;;;;;;;;;;;;;;;;5056357;28;20281;-67
2023/11/17 13:22:02;;;;;;;;;;;;;;;;;;5056500;28;19920;-67
2023/11/17 13:24:29;;;;;;;;;;;;;;;;;;5055804;28;19944;-67
2023/11/17 13:26:56;;;;;;;;;;;;;;;;;;5056402;28;19921;-67
2023/11/17 13:29:22;;;;;;;;;;;;;;;;;;5056097;28;19927;-67
2023/11/17 13:31:49;;;;;;;;;;;;;;;;;;5056126;28;19921;-67
2023/11/17 13:34:15;;;;;;;;;;;;;;;;;;5055873;28;19920;-66
2023/11/17 13:36:42;;;;;;;;;;;;;;;;;;5055940;28;19928;-66
2023/11/17 13:39:15;;;;;;;;;;;;;;;;;;5055871;28;19928;-66
2023/11/17 13:41:42;;;;;;;;;;;;;;;;;;5055915;28;19928;-66
2023/11/17 13:44:09;;;;;;;;;;;;;;;;;;5055355;28;19927;-66
2023/11/17 13:46:36;;;;;;;;;;;;;;;;;;5055882;28;19928;-66
2023/11/17 13:49:03;;;;;;;;;;;;;;;;;;5055086;28;19921;-66
2023/11/17 13:51:31;;;;;;;;;;;;;;;;;;5055807;28;19984;-67
2023/11/17 13:53:57;;;;;;;;;;;;;;;;;;5055629;28;19924;-67
2023/11/17 13:56:24;;;;;;;;;;;;;;;;;;5055679;28;19921;-67
2023/11/17 13:58:51;;;;;;;;;;;;;;;;;;5055464;28;19921;-66
2023/11/17 14:01:19;;;;;;;;;;;;;;;;;;5055630;28;19920;-67
2023/11/17 14:03:46;;;;;;;;;;;;;;;;;;5055380;28;19927;-67
2023/11/17 14:06:12;;;;;;;;;;;;;;;;;;5055223;28;19921;-66
2023/11/17 14:08:39;;;;;;;;;;;;;;;;;;5054752;28;19921;-67
2023/11/17 14:11:10;;;;;;;;;;;;;;;;;;5055323;28;19929;-67
2023/11/17 14:13:36;;;;;;;;;;;;;;;;;;5055250;28;19921;-66
2023/11/17 14:16:08;;;;;;;;;;;;;;;;;;5055151;28;19927;-66
2023/11/17 14:18:35;;;;;;;;;;;;;;;;;;5054778;28;19921;-66
2023/11/17 14:21:01;;;;;;;;;;;;;;;;;;5054370;28;19921;-67
2023/11/17 14:23:28;;;;;;;;;;;;;;;;;;5055247;28;19933;-67
2023/11/17 14:25:54;;;;;;;;;;;;;;;;;;5055057;28;19943;-67
2023/11/17 14:28:21;;;;;;;;;;;;;;;;;;5054789;28;19925;-67
2023/11/17 14:30:47;;;;;;;;;;;;;;;;;;5054641;28;19921;-67
2023/11/17 14:33:14;;;;;;;;;;;;;;;;;;5054424;28;19929;-67
2023/11/17 14:35:40;;;;;;;;;;;;;;;;;;5054757;28;19921;-66
2023/11/17 14:38:07;;;;;;;;;;;;;;;;;;5054414;28;19928;-67
2023/11/17 14:40:34;;;;;;;;;;;;;;;;;;5054796;28;19920;-67
2023/11/17 14:43:00;;;;;;;;;;;;;;;;;;5054664;28;20270;-67
2023/11/17 14:45:28;;;;;;;;;;;;;;;;;;5054408;28;19920;-68
2023/11/17 14:47:55;;;;;;;;;;;;;;;;;;5054021;28;19921;-68
2023/11/17 14:50:21;;;;;;;;;;;;;;;;;;5053938;28;19921;-68
2023/11/17 14:52:48;;;;;;;;;;;;;;;;;;5054193;28;20309;-67
2023/11/17 14:55:17;;;;;;;;;;;;;;;;;;5054407;28;19920;-68
2023/11/17 14:57:43;;;;;;;;;;;;;;;;;;5054407;28;19929;-67
2023/11/17 15:00:16;;;;;;;;;;;;;;;;;;5053646;28;20230;-67
2023/11/17 15:02:44;;;;;;;;;;;;;;;;;;5054648;28;19921;-68
2023/11/17 15:05:19;;;;;;;;;;;;;;;;;;5054254;28;19943;-67
2023/11/17 15:07:45;;;;;;;;;;;;;;;;;;5054081;28;19927;-67
2023/11/17 15:10:13;;;;;;;;;;;;;;;;;;5053910;28;20362;-67
2023/11/17 15:12:40;;;;;;;;;;;;;;;;;;5054153;28;19921;-67
2023/11/17 15:15:15;;;;;;;;;;;;;;;;;;5053803;28;19929;-68
2023/11/17 15:17:41;;;;;;;;;;;;;;;;;;5053849;28;20023;-67
2023/11/17 15:20:09;;;;;;;;;;;;;;;;;;5053710;28;20042;-67
2023/11/17 15:22:38;;;;;;;;;;;;;;;;;;5053628;28;19921;-68
2023/11/17 15:25:05;;;;;;;;;;;;;;;;;;5053443;28;19920;-67
2023/11/17 15:27:32;;;;;;;;;;;;;;;;;;5053388;28;19920;-68
2023/11/17 15:29:58;;;;;;;;;;;;;;;;;;5053665;28;19932;-67
2023/11/17 15:32:25;;;;;;;;;;;;;;;;;;5053357;28;19921;-67
2023/11/17 15:34:53;;;;;;;;;;;;;;;;;;5053380;28;19920;-66
2023/11/17 15:37:23;;;;;;;;;;;;;;;;;;5053568;28;20242;-66
2023/11/17 15:39:50;;;;;;;;;;;;;;;;;;5053341;28;20392;-67
2023/11/17 15:42:17;;;;;;;;;;;;;;;;;;5053376;28;19928;-66
2023/11/17 15:44:43;;;;;;;;;;;;;;;;;;5053185;28;19941;-66
2023/11/17 15:47:10;;;;;;;;;;;;;;;;;;5052992;28;20314;-67
2023/11/17 15:49:36;;;;;;;;;;;;;;;;;;5053328;28;19921;-67
2023/11/17 15:52:04;;;;;;;;;;;;;;;;;;5053307;28;20389;-67
2023/11/17 15:54:31;;;;;;;;;;;;;;;;;;5053238;28;19920;-67
2023/11/17 15:56:57;;;;;;;;;;;;;;;;;;5053392;28;19921;-67
2023/11/17 15:59:24;;;;;;;;;;;;;;;;;;5053118;28;19932;-67
2023/11/17 16:01:52;;;;;;;;;;;;;;;;;;5053277;28;19921;-67
2023/11/17 16:04:18;;;;;;;;;;;;;;;;;;5053264;28;19921;-67
2023/11/17 16:06:46;;;;;;;;;;;;;;;;;;5053373;28;20381;-67
2023/11/17 16:09:13;;;;;;;;;;;;;;;;;;5053422;28;19921;-67
2023/11/17 16:11:40;;;;;;;;;;;;;;;;;;5053122;28;19936;-66
2023/11/17 16:14:08;;;;;;;;;;;;;;;;;;5053034;28;19932;-67
2023/11/17 16:16:36;;;;;;;;;;;;;;;;;;5052399;28;19920;-66
2023/11/17 16:19:02;;;;;;;;;;;;;;;;;;5052785;28;19971;-67
2023/11/17 16:21:29;;;;;;;;;;;;;;;;;;5052507;28;20041;-67
2023/11/17 16:23:56;;;;;;;;;;;;;;;;;;5052738;28;20358;-67
2023/11/17 16:26:23;;;;;;;;;;;;;;;;;;5052915;28;19928;-67
2023/11/17 16:28:49;;;;;;;;;;;;;;;;;;5052753;28;19924;-67
2023/11/17 16:31:16;;;;;;;;;;;;;;;;;;5052550;28;19929;-66
2023/11/17 16:33:45;;;;;;;;;;;;;;;;;;5052242;28;19921;-66
2023/11/17 16:36:11;;;;;;;;;;;;;;;;;;5052676;28;19928;-66
2023/11/17 16:38:38;;;;;;;;;;;;;;;;;;5052495;28;19928;-67
2023/11/17 16:41:04;;;;;;;;;;;;;;;;;;5053079;28;19920;-67
2023/11/17 16:43:31;;;;;;;;;;;;;;;;;;5053293;28;19921;-67